Aérodrome :
LOGIN :

S'inscrire | Disclaimer

   EN    FR    IT 

 










Légende :    VFR   VFR Marginal   IFR   IFR Intensif   IFR Très Intensif
Visi : 
Plafond : 
>= 8 km
>= 3000ft
5 à 8 km
1000 à 3000 ft
1500m à 5 km
500 à 1000 ft
800 à 1500m
200 à 500 ft
< 800m
< 200 ft
Symboles :   Orages  Brouillard  Fortes neiges  Fortes précipitations  Vent > 20 kt
SIGMETs :   Divers  Orages  Givrage  Turbulence  Onde Orograph.  Cendres Volcan.






- Altitude de l'aérodrome : 1036 ft
- Code IATA : ERF


EDDE - Erfurt

DERNIER METAR :
  • 251550Z 24006KT CAVOK 17/05 Q1026 NOSIG

METARs EXPIRÉS :
  • 251520Z 24007KT CAVOK 18/05 Q1026 NOSIG
  • 251450Z 24005KT 210V270 CAVOK 18/04 Q1026 NOSIG
  • 251420Z 31004KT 280V340 CAVOK 18/05 Q1026 NOSIG
  • 251350Z 28006KT 250V330 CAVOK 18/06 Q1027 NOSIG
  • 251320Z 28010KT CAVOK 18/06 Q1027 NOSIG

TAF AMD TAF EDDE
Valide du 25 à 13h jusqu'au 26 à 12h UTC


251343Z 2513/2612 22007KT CAVOK
TEMPO 2513/2515 30008KT
BECMG 2602/2604 28005KT
TEMPO 2607/2611 BKN011
PROB30
TEMPO 2607/2610 4500 -RADZ BKN005



MET'MAP, la Météo Aéronautique d'un coup d'oeil ! - Copyright ORBIFLY Décembre 2007 - Disclaimer

ORBIFLY MET'MAP TEAM :

Programmation & Développement : Alexandra Zaïnal
Sur une idée originale de : Baudouin d'Aumeries
Assistance à la programmation : Marc-Olivier Méhu
Soutien technique & logistique : Manuel Goepfert

Contact : metmap@orbifly.com




SOURCES & CREDITS :

   NOAA